sensor_id;sensor_type;location;lat;lon;timestamp;temperature;humidity
14521;DHT22;7347;50.844;4.490;2023-08-31T11:29:21;21.90;99.90
14521;DHT22;7347;50.844;4.490;2023-08-31T11:31:48;21.90;99.90
14521;DHT22;7347;50.844;4.490;2023-08-31T11:34:16;21.70;99.90
14521;DHT22;7347;50.844;4.490;2023-08-31T11:36:44;21.40;99.90
14521;DHT22;7347;50.844;4.490;2023-08-31T11:39:11;21.30;99.90
14521;DHT22;7347;50.844;4.490;2023-08-31T11:41:39;21.20;99.90
14521;DHT22;7347;50.844;4.490;2023-08-31T11:44:07;21.10;99.90
14521;DHT22;7347;50.844;4.490;2023-08-31T11:46:37;21.10;99.90
14521;DHT22;7347;50.844;4.490;2023-08-31T11:49:04;21.30;99.90
14521;DHT22;7347;50.844;4.490;2023-08-31T11:51:32;21.30;99.90
14521;DHT22;7347;50.844;4.490;2023-08-31T11:54:00;21.40;99.90
14521;DHT22;7347;50.844;4.490;2023-08-31T11:56:38;21.40;99.90
14521;DHT22;7347;50.844;4.490;2023-08-31T11:59:08;21.30;99.90
14521;DHT22;7347;50.844;4.490;2023-08-31T12:01:39;21.20;99.90
14521;DHT22;7347;50.844;4.490;2023-08-31T12:04:13;21.40;99.90
14521;DHT22;7347;50.844;4.490;2023-08-31T12:06:41;21.60;99.90
14521;DHT22;7347;50.844;4.490;2023-08-31T12:09:09;21.70;99.90
14521;DHT22;7347;50.844;4.490;2023-08-31T12:11:36;21.50;99.90
14521;DHT22;7347;50.844;4.490;2023-08-31T12:14:17;21.50;99.90
14521;DHT22;7347;50.844;4.490;2023-08-31T12:16:46;21.50;99.90
14521;DHT22;7347;50.844;4.490;2023-08-31T12:19:13;21.00;99.90
14521;DHT22;7347;50.844;4.490;2023-08-31T12:21:41;21.00;99.90
14521;DHT22;7347;50.844;4.490;2023-08-31T12:24:08;20.90;99.90
14521;DHT22;7347;50.844;4.490;2023-08-31T12:26:35;21.00;99.90
14521;DHT22;7347;50.844;4.490;2023-08-31T12:29:03;20.80;99.90
14521;DHT22;7347;50.844;4.490;2023-08-31T12:31:30;20.60;99.90
14521;DHT22;7347;50.844;4.490;2023-08-31T12:33:59;20.60;99.90
14521;DHT22;7347;50.844;4.490;2023-08-31T12:36:30;20.70;99.90
14521;DHT22;7347;50.844;4.490;2023-08-31T12:38:57;21.00;99.90
14521;DHT22;7347;50.844;4.490;2023-08-31T12:41:27;21.10;99.90
14521;DHT22;7347;50.844;4.490;2023-08-31T12:43:53;21.20;99.90
14521;DHT22;7347;50.844;4.490;2023-08-31T12:46:20;21.30;99.90
14521;DHT22;7347;50.844;4.490;2023-08-31T12:48:47;21.10;99.90
14521;DHT22;7347;50.844;4.490;2023-08-31T12:51:16;21.20;99.90
14521;DHT22;7347;50.844;4.490;2023-08-31T12:53:43;21.20;99.90
14521;DHT22;7347;50.844;4.490;2023-08-31T12:56:10;21.10;99.90
14521;DHT22;7347;50.844;4.490;2023-08-31T12:58:37;21.10;99.90
14521;DHT22;7347;50.844;4.490;2023-08-31T13:01:04;21.40;99.90
14521;DHT22;7347;50.844;4.490;2023-08-31T13:03:31;21.20;99.90
14521;DHT22;7347;50.844;4.490;2023-08-31T13:05:58;21.20;99.90
14521;DHT22;7347;50.844;4.490;2023-08-31T13:08:26;21.40;99.90
14521;DHT22;7347;50.844;4.490;2023-08-31T13:10:54;21.40;99.90
14521;DHT22;7347;50.844;4.490;2023-08-31T13:13:21;21.50;99.90
14521;DHT22;7347;50.844;4.490;2023-08-31T13:15:48;21.60;99.90
14521;DHT22;7347;50.844;4.490;2023-08-31T13:18:16;21.60;99.90
14521;DHT22;7347;50.844;4.490;2023-08-31T13:20:49;21.60;99.90
14521;DHT22;7347;50.844;4.490;2023-08-31T13:23:16;21.50;99.90
14521;DHT22;7347;50.844;4.490;2023-08-31T13:25:44;21.60;99.90
14521;DHT22;7347;50.844;4.490;2023-08-31T13:28:12;21.40;99.90
14521;DHT22;7347;50.844;4.490;2023-08-31T13:30:39;21.50;99.90
14521;DHT22;7347;50.844;4.490;2023-08-31T13:33:08;21.60;99.90
14521;DHT22;7347;50.844;4.490;2023-08-31T13:35:35;21.60;99.90
14521;DHT22;7347;50.844;4.490;2023-08-31T13:38:03;21.60;99.90
14521;DHT22;7347;50.844;4.490;2023-08-31T13:40:30;21.40;99.90
14521;DHT22;7347;50.844;4.490;2023-08-31T13:42:59;21.50;99.90
14521;DHT22;7347;50.844;4.490;2023-08-31T13:45:29;21.60;99.90
14521;DHT22;7347;50.844;4.490;2023-08-31T13:47:56;21.40;99.90
14521;DHT22;7347;50.844;4.490;2023-08-31T13:50:25;21.40;99.90
14521;DHT22;7347;50.844;4.490;2023-08-31T13:52:52;21.60;99.90
14521;DHT22;7347;50.844;4.490;2023-08-31T13:55:19;21.70;99.90
14521;DHT22;7347;50.844;4.490;2023-08-31T13:57:46;21.50;99.90
14521;DHT22;7347;50.844;4.490;2023-08-31T14:00:15;21.60;99.90
14521;DHT22;7347;50.844;4.490;2023-08-31T14:02:42;21.50;99.90
14521;DHT22;7347;50.844;4.490;2023-08-31T14:05:10;21.50;99.90
14521;DHT22;7347;50.844;4.490;2023-08-31T14:07:37;21.50;99.90
14521;DHT22;7347;50.844;4.490;2023-08-31T14:10:05;21.50;99.90
14521;DHT22;7347;50.844;4.490;2023-08-31T14:12:32;21.60;99.90
14521;DHT22;7347;50.844;4.490;2023-08-31T14:14:59;21.60;99.90
14521;DHT22;7347;50.844;4.490;2023-08-31T14:17:30;21.50;99.90
14521;DHT22;7347;50.844;4.490;2023-08-31T14:19:59;21.50;99.90
14521;DHT22;7347;50.844;4.490;2023-08-31T14:22:26;21.50;99.90
14521;DHT22;7347;50.844;4.490;2023-08-31T14:24:53;21.40;99.90
14521;DHT22;7347;50.844;4.490;2023-08-31T14:27:20;21.40;99.90
14521;DHT22;7347;50.844;4.490;2023-08-31T14:29:48;21.30;99.90
14521;DHT22;7347;50.844;4.490;2023-08-31T14:32:15;21.30;99.90
14521;DHT22;7347;50.844;4.490;2023-08-31T14:34:43;21.20;99.90
14521;DHT22;7347;50.844;4.490;2023-08-31T14:37:10;21.10;99.90
14521;DHT22;7347;50.844;4.490;2023-08-31T14:39:37;21.10;99.90
14521;DHT22;7347;50.844;4.490;2023-08-31T14:42:04;21.10;99.90
14521;DHT22;7347;50.844;4.490;2023-08-31T14:44:31;21.20;99.90
14521;DHT22;7347;50.844;4.490;2023-08-31T14:46:58;21.20;99.90
14521;DHT22;7347;50.844;4.490;2023-08-31T14:49:25;21.20;99.90
14521;DHT22;7347;50.844;4.490;2023-08-31T14:51:53;21.20;99.90
14521;DHT22;7347;50.844;4.490;2023-08-31T14:54:20;21.20;99.90
14521;DHT22;7347;50.844;4.490;2023-08-31T14:56:49;21.30;99.90
14521;DHT22;7347;50.844;4.490;2023-08-31T14:59:16;21.10;99.90
14521;DHT22;7347;50.844;4.490;2023-08-31T15:01:43;21.00;99.90
14521;DHT22;7347;50.844;4.490;2023-08-31T15:04:11;21.00;99.90
14521;DHT22;7347;50.844;4.490;2023-08-31T15:06:38;21.00;99.90
14521;DHT22;7347;50.844;4.490;2023-08-31T15:09:06;20.60;99.90
14521;DHT22;7347;50.844;4.490;2023-08-31T15:11:33;20.60;99.90
14521;DHT22;7347;50.844;4.490;2023-08-31T15:14:00;20.70;99.90
14521;DHT22;7347;50.844;4.490;2023-08-31T15:16:27;20.80;99.90
14521;DHT22;7347;50.844;4.490;2023-08-31T15:18:54;20.70;99.90
14521;DHT22;7347;50.844;4.490;2023-08-31T15:21:21;20.80;99.90
14521;DHT22;7347;50.844;4.490;2023-08-31T15:23:48;20.90;99.90
14521;DHT22;7347;50.844;4.490;2023-08-31T15:26:16;21.00;99.90
14521;DHT22;7347;50.844;4.490;2023-08-31T15:28:43;20.90;99.90
14521;DHT22;7347;50.844;4.490;2023-08-31T15:31:12;21.00;99.90
14521;DHT22;7347;50.844;4.490;2023-08-31T15:33:39;20.90;99.90
14521;DHT22;7347;50.844;4.490;2023-08-31T15:36:07;20.70;99.90
14521;DHT22;7347;50.844;4.490;2023-08-31T15:38:35;20.50;99.90
14521;DHT22;7347;50.844;4.490;2023-08-31T15:41:04;20.40;99.90
14521;DHT22;7347;50.844;4.490;2023-08-31T15:43:33;20.30;99.90
14521;DHT22;7347;50.844;4.490;2023-08-31T15:46:03;20.40;99.90
14521;DHT22;7347;50.844;4.490;2023-08-31T15:48:30;20.30;99.90
14521;DHT22;7347;50.844;4.490;2023-08-31T15:50:57;20.20;99.90
14521;DHT22;7347;50.844;4.490;2023-08-31T15:53:25;20.20;99.90
14521;DHT22;7347;50.844;4.490;2023-08-31T15:55:54;20.10;99.90
14521;DHT22;7347;50.844;4.490;2023-08-31T15:58:20;20.20;99.90
14521;DHT22;7347;50.844;4.490;2023-08-31T16:00:49;20.20;99.90
14521;DHT22;7347;50.844;4.490;2023-08-31T16:03:16;20.20;99.90
14521;DHT22;7347;50.844;4.490;2023-08-31T16:05:42;20.20;99.90
14521;DHT22;7347;50.844;4.490;2023-08-31T16:08:09;20.10;99.90
14521;DHT22;7347;50.844;4.490;2023-08-31T16:10:38;20.00;99.90
14521;DHT22;7347;50.844;4.490;2023-08-31T16:13:05;19.80;99.90
14521;DHT22;7347;50.844;4.490;2023-08-31T16:15:32;19.80;99.90
14521;DHT22;7347;50.844;4.490;2023-08-31T16:18:00;19.80;99.90
14521;DHT22;7347;50.844;4.490;2023-08-31T16:20:28;19.80;99.90
14521;DHT22;7347;50.844;4.490;2023-08-31T16:22:55;19.70;99.90
14521;DHT22;7347;50.844;4.490;2023-08-31T16:25:22;19.60;99.90
14521;DHT22;7347;50.844;4.490;2023-08-31T16:27:49;19.60;99.90
14521;DHT22;7347;50.844;4.490;2023-08-31T16:30:16;19.60;99.90
14521;DHT22;7347;50.844;4.490;2023-08-31T16:32:43;19.60;99.90
14521;DHT22;7347;50.844;4.490;2023-08-31T16:35:13;19.50;99.90
14521;DHT22;7347;50.844;4.490;2023-08-31T16:37:40;19.30;99.90
14521;DHT22;7347;50.844;4.490;2023-08-31T16:40:09;19.20;99.90
14521;DHT22;7347;50.844;4.490;2023-08-31T16:42:37;19.00;99.90
14521;DHT22;7347;50.844;4.490;2023-08-31T16:45:05;18.80;99.90
14521;DHT22;7347;50.844;4.490;2023-08-31T16:47:33;18.90;99.90
14521;DHT22;7347;50.844;4.490;2023-08-31T16:50:00;18.80;99.90
14521;DHT22;7347;50.844;4.490;2023-08-31T16:52:30;18.80;99.90
14521;DHT22;7347;50.844;4.490;2023-08-31T16:54:57;18.80;99.90
14521;DHT22;7347;50.844;4.490;2023-08-31T16:57:25;18.70;99.90
14521;DHT22;7347;50.844;4.490;2023-08-31T16:59:52;18.60;99.90
14521;DHT22;7347;50.844;4.490;2023-08-31T17:02:19;18.50;99.90
14521;DHT22;7347;50.844;4.490;2023-08-31T17:04:46;18.40;99.90
14521;DHT22;7347;50.844;4.490;2023-08-31T17:07:13;18.30;99.90
14521;DHT22;7347;50.844;4.490;2023-08-31T17:09:41;18.20;99.90
14521;DHT22;7347;50.844;4.490;2023-08-31T17:12:08;18.00;99.90
14521;DHT22;7347;50.844;4.490;2023-08-31T17:14:35;17.90;99.90
14521;DHT22;7347;50.844;4.490;2023-08-31T17:17:02;17.90;99.90
14521;DHT22;7347;50.844;4.490;2023-08-31T17:19:30;17.80;99.90
14521;DHT22;7347;50.844;4.490;2023-08-31T17:21:56;17.80;99.90
14521;DHT22;7347;50.844;4.490;2023-08-31T17:24:24;17.70;99.90
14521;DHT22;7347;50.844;4.490;2023-08-31T17:26:52;17.70;99.90
14521;DHT22;7347;50.844;4.490;2023-08-31T17:29:19;17.60;99.90
14521;DHT22;7347;50.844;4.490;2023-08-31T17:31:46;17.60;99.90
14521;DHT22;7347;50.844;4.490;2023-08-31T17:34:13;17.40;99.90
14521;DHT22;7347;50.844;4.490;2023-08-31T17:36:41;17.50;99.90
14521;DHT22;7347;50.844;4.490;2023-08-31T17:39:09;17.50;99.90
14521;DHT22;7347;50.844;4.490;2023-08-31T17:41:37;17.50;99.90
14521;DHT22;7347;50.844;4.490;2023-08-31T17:44:06;17.50;99.90
14521;DHT22;7347;50.844;4.490;2023-08-31T17:46:33;17.30;99.90
14521;DHT22;7347;50.844;4.490;2023-08-31T17:49:00;17.40;99.90
14521;DHT22;7347;50.844;4.490;2023-08-31T17:51:27;17.50;99.90
14521;DHT22;7347;50.844;4.490;2023-08-31T17:53:54;17.40;99.90
14521;DHT22;7347;50.844;4.490;2023-08-31T17:56:24;17.40;99.90
14521;DHT22;7347;50.844;4.490;2023-08-31T17:58:51;17.30;99.90
14521;DHT22;7347;50.844;4.490;2023-08-31T18:01:20;17.40;99.90
14521;DHT22;7347;50.844;4.490;2023-08-31T18:03:46;17.30;99.90
14521;DHT22;7347;50.844;4.490;2023-08-31T18:06:13;17.30;99.90
14521;DHT22;7347;50.844;4.490;2023-08-31T18:08:40;17.30;99.90
14521;DHT22;7347;50.844;4.490;2023-08-31T18:11:11;17.20;99.90
14521;DHT22;7347;50.844;4.490;2023-08-31T18:13:38;17.30;99.90
14521;DHT22;7347;50.844;4.490;2023-08-31T18:16:05;17.20;99.90
14521;DHT22;7347;50.844;4.490;2023-08-31T18:18:33;17.20;99.90
14521;DHT22;7347;50.844;4.490;2023-08-31T18:21:00;17.10;99.90
14521;DHT22;7347;50.844;4.490;2023-08-31T18:23:28;17.10;99.90
14521;DHT22;7347;50.844;4.490;2023-08-31T18:25:55;17.10;99.90
14521;DHT22;7347;50.844;4.490;2023-08-31T18:28:22;17.10;99.90
14521;DHT22;7347;50.844;4.490;2023-08-31T18:30:53;17.10;99.90
14521;DHT22;7347;50.844;4.490;2023-08-31T18:33:22;17.10;99.90
14521;DHT22;7347;50.844;4.490;2023-08-31T18:35:51;17.00;99.90
14521;DHT22;7347;50.844;4.490;2023-08-31T18:38:18;17.00;99.90
14521;DHT22;7347;50.844;4.490;2023-08-31T18:40:45;16.90;99.90
14521;DHT22;7347;50.844;4.490;2023-08-31T18:43:12;16.90;99.90
14521;DHT22;7347;50.844;4.490;2023-08-31T18:45:43;16.90;99.90
14521;DHT22;7347;50.844;4.490;2023-08-31T18:48:10;17.00;99.90
14521;DHT22;7347;50.844;4.490;2023-08-31T18:50:37;17.00;99.90
14521;DHT22;7347;50.844;4.490;2023-08-31T18:53:05;16.80;99.90
14521;DHT22;7347;50.844;4.490;2023-08-31T18:55:33;16.70;99.90
14521;DHT22;7347;50.844;4.490;2023-08-31T18:58:00;16.60;99.90
14521;DHT22;7347;50.844;4.490;2023-08-31T19:00:27;16.50;99.90
